Time;durP1;ratioP1;P1;durP2;ratioP2;P2;SDS_P1;SDS_P2;PMS_P1;PMS_P2;Temp;Humidity;BMP_temperature;BMP_pressure;BME280_temperature;BME280_humidity;BME280_pressure;Samples;Min_cycle;Max_cycle;Signal;HPM_P1;HPM_P2
2021/05/23 00:00:27;;;;;;;2.28;1.23;;;22.00;49.40;;;;;;5093883;28;20495;-40
2021/05/23 00:02:56;;;;;;;2.13;1.20;;;22.00;49.40;;;;;;5129537;28;20043;-38
2021/05/23 00:05:27;;;;;;;1.42;1.10;;;22.00;49.40;;;;;;5112158;28;20055;-38
2021/05/23 00:08:09;;;;;;;2.15;1.10;;;22.00;49.40;;;;;;5112349;28;20097;-38
2021/05/23 00:10:43;;;;;;;1.10;0.90;;;22.00;49.40;;;;;;5145261;27;20047;-39
2021/05/23 00:13:13;;;;;;;1.77;1.10;;;22.00;49.40;;;;;;5129433;28;20111;-38
2021/05/23 00:15:53;;;;;;;1.80;1.08;;;22.00;49.40;;;;;;5130108;28;20324;-39
2021/05/23 00:18:22;;;;;;;1.83;1.02;;;22.00;49.40;;;;;;5130028;28;20051;-39
2021/05/23 00:20:50;;;;;;;1.42;1.00;;;22.00;49.40;;;;;;5113360;28;20059;-39
2021/05/23 00:23:18;;;;;;;1.88;1.08;;;22.00;49.40;;;;;;5114613;28;20131;-38
2021/05/23 00:25:45;;;;;;;1.58;0.90;;;22.00;49.40;;;;;;5133197;27;20112;-39
2021/05/23 00:28:13;;;;;;;1.95;1.08;;;22.00;49.40;;;;;;5116670;27;20116;-39
2021/05/23 00:30:41;;;;;;;1.50;1.02;;;22.00;49.40;;;;;;5117761;27;20039;-39
2021/05/23 00:33:10;;;;;;;2.05;1.05;;;22.00;49.40;;;;;;5116517;27;20043;-39
2021/05/23 00:35:38;;;;;;;1.08;0.70;;;22.00;49.40;;;;;;5116457;27;20050;-39
2021/05/23 00:38:07;;;;;;;2.03;1.15;;;22.00;49.40;;;;;;5115085;28;20044;-38
2021/05/23 00:40:35;;;;;;;1.05;0.80;;;22.00;49.40;;;;;;5128089;27;20047;-38
2021/05/23 00:43:17;;;;;;;1.17;0.70;;;22.00;49.40;;;;;;5131897;27;20043;-39
2021/05/23 00:45:46;;;;;;;1.90;0.90;;;22.00;49.40;;;;;;5121150;27;20043;-38
2021/05/23 00:48:13;;;;;;;4.53;1.02;;;22.00;49.40;;;;;;5116330;27;20445;-39
2021/05/23 00:50:41;;;;;;;1.88;0.98;;;22.00;49.40;;;;;;5126272;27;20043;-38
2021/05/23 00:53:09;;;;;;;2.95;0.90;;;22.00;49.40;;;;;;5131649;27;20043;-38
2021/05/23 00:55:37;;;;;;;1.08;0.75;;;22.00;49.40;;;;;;5131869;27;20063;-38
2021/05/23 00:58:07;;;;;;;1.30;0.80;;;22.00;49.40;;;;;;5123955;27;20043;-38
2021/05/23 01:00:40;;;;;;;4.90;0.95;;;22.00;49.40;;;;;;5114791;28;20058;-39
2021/05/23 01:03:29;;;;;;;2.05;1.00;;;22.00;49.40;;;;;;5120645;27;20050;-38
2021/05/23 01:06:00;;;;;;;1.50;0.95;;;21.90;49.30;;;;;;5128059;27;20122;-40
2021/05/23 01:08:28;;;;;;;3.25;0.90;;;22.00;49.40;;;;;;5106293;27;20490;-39
2021/05/23 01:11:28;;;;;;;1.30;0.82;;;22.00;49.40;;;;;;5132920;27;20047;-39
2021/05/23 01:13:58;;;;;;;1.27;0.65;;;22.00;49.40;;;;;;5131228;27;20043;-38
2021/05/23 01:16:39;;;;;;;1.25;0.88;;;21.90;49.30;;;;;;5102101;28;20055;-39
2021/05/23 01:19:18;;;;;;;1.80;1.02;;;22.00;49.40;;;;;;5127788;27;20054;-39
2021/05/23 01:21:52;;;;;;;2.83;0.93;;;22.00;49.40;;;;;;5131478;27;20043;-38
2021/05/23 01:24:31;;;;;;;1.73;0.95;;;22.00;49.40;;;;;;5131005;27;20043;-38
2021/05/23 01:26:59;;;;;;;0.80;0.80;;;21.90;49.30;;;;;;5117943;27;20047;-38
2021/05/23 01:29:26;;;;;;;3.28;1.20;;;21.90;49.40;;;;;;5114624;27;20395;-39
2021/05/23 01:31:55;;;;;;;1.73;0.90;;;22.00;49.40;;;;;;5114446;27;20048;-38
2021/05/23 01:34:23;;;;;;;2.45;0.82;;;21.90;49.40;;;;;;5115279;27;20380;-38
2021/05/23 01:36:56;;;;;;;1.35;0.82;;;21.90;49.40;;;;;;5116386;27;20055;-38
2021/05/23 01:39:24;;;;;;;1.25;0.80;;;21.90;49.40;;;;;;5114239;28;20047;-38
2021/05/23 01:41:53;;;;;;;3.65;0.70;;;21.90;49.40;;;;;;5114965;27;20079;-39
2021/05/23 01:44:21;;;;;;;1.33;1.00;;;21.90;49.40;;;;;;5116409;27;20052;-39
2021/05/23 01:46:48;;;;;;;0.82;0.60;;;21.90;49.40;;;;;;5113973;28;20050;-38
2021/05/23 01:49:15;;;;;;;1.92;0.95;;;21.90;49.40;;;;;;5115164;27;20092;-39
2021/05/23 01:51:42;;;;;;;1.15;0.82;;;21.90;49.40;;;;;;5120619;27;20092;-38
2021/05/23 01:54:09;;;;;;;1.73;0.70;;;21.90;49.40;;;;;;5131849;27;20043;-38
2021/05/23 01:56:38;;;;;;;0.88;0.65;;;21.90;49.40;;;;;;5132180;27;20047;-38
2021/05/23 01:59:05;;;;;;;1.20;0.60;;;21.90;49.40;;;;;;5131948;27;20092;-38
2021/05/23 02:01:32;;;;;;;1.00;0.80;;;22.00;49.60;;;;;;5130585;27;20047;-38
2021/05/23 02:04:01;;;;;;;1.08;0.75;;;22.00;49.50;;;;;;5130474;27;20040;-38
2021/05/23 02:06:29;;;;;;;1.38;0.80;;;21.90;49.50;;;;;;5126139;27;20043;-38
2021/05/23 02:08:56;;;;;;;1.38;0.85;;;21.90;49.50;;;;;;5097156;27;20071;-38
2021/05/23 02:11:23;;;;;;;1.00;0.85;;;21.90;49.50;;;;;;5131788;27;20043;-38
2021/05/23 02:13:54;;;;;;;1.60;0.90;;;21.90;49.50;;;;;;5132464;27;20043;-38
2021/05/23 02:16:21;;;;;;;2.15;0.85;;;21.90;49.50;;;;;;5073994;28;20056;-38
2021/05/23 02:18:49;;;;;;;3.25;0.80;;;21.90;49.50;;;;;;5093127;28;20048;-39
2021/05/23 02:21:16;;;;;;;1.33;0.73;;;21.90;49.50;;;;;;5109146;28;20092;-38
2021/05/23 02:23:52;;;;;;;2.83;0.85;;;21.90;49.50;;;;;;5110809;28;20056;-39
2021/05/23 02:26:20;;;;;;;1.30;0.88;;;22.00;49.60;;;;;;5110104;28;20043;-38
2021/05/23 02:28:48;;;;;;;1.70;0.90;;;21.90;49.50;;;;;;5110640;28;20092;-39
2021/05/23 02:31:15;;;;;;;2.38;0.80;;;21.90;49.60;;;;;;5095744;28;20048;-38
2021/05/23 02:33:42;;;;;;;1.20;0.70;;;21.90;49.60;;;;;;5093704;28;20048;-38
2021/05/23 02:36:09;;;;;;;0.88;0.80;;;21.90;49.60;;;;;;5105688;28;20047;-37
2021/05/23 02:38:37;;;;;;;1.25;0.88;;;21.90;49.60;;;;;;5098421;28;20408;-38
2021/05/23 02:41:04;;;;;;;1.00;0.70;;;21.90;49.60;;;;;;5091236;28;20105;-38
2021/05/23 02:43:31;;;;;;;1.00;0.63;;;22.00;49.70;;;;;;5094697;28;20075;-38
2021/05/23 02:46:01;;;;;;;0.85;0.75;;;21.90;49.60;;;;;;5092593;28;20044;-38
2021/05/23 02:48:29;;;;;;;1.40;0.77;;;21.90;49.60;;;;;;5100304;28;20051;-38
2021/05/23 02:50:56;;;;;;;1.63;0.90;;;21.90;49.60;;;;;;5110680;28;20051;-38
2021/05/23 02:53:23;;;;;;;1.33;0.90;;;21.90;49.70;;;;;;5108780;28;20544;-38
2021/05/23 02:55:50;;;;;;;1.23;0.77;;;22.00;49.80;;;;;;5110417;28;20051;-38
2021/05/23 02:58:18;;;;;;;1.67;0.80;;;22.00;49.80;;;;;;5109021;28;20119;-38
2021/05/23 03:00:46;;;;;;;1.48;0.65;;;21.90;49.70;;;;;;5107724;28;20495;-38
2021/05/23 03:03:15;;;;;;;2.15;0.80;;;21.90;49.70;;;;;;5106876;28;20074;-38
2021/05/23 03:05:43;;;;;;;2.40;0.80;;;21.90;49.70;;;;;;5092996;28;20426;-38
2021/05/23 03:08:10;;;;;;;1.00;0.50;;;21.90;49.70;;;;;;5092428;28;20066;-38
2021/05/23 03:10:51;;;;;;;1.42;0.82;;;22.00;49.80;;;;;;5092058;28;20051;-38
2021/05/23 03:13:19;;;;;;;2.38;1.05;;;21.90;49.70;;;;;;5078380;28;20052;-38
2021/05/23 03:15:46;;;;;;;1.88;0.80;;;21.90;49.70;;;;;;5112044;28;20067;-38
2021/05/23 03:18:14;;;;;;;3.83;0.68;;;22.00;49.80;;;;;;5094613;28;20052;-38
2021/05/23 03:20:43;;;;;;;1.00;0.77;;;21.90;49.80;;;;;;5113676;28;20062;-38
2021/05/23 03:23:11;;;;;;;1.92;0.98;;;21.90;49.80;;;;;;5113356;28;20055;-38
2021/05/23 03:25:38;;;;;;;2.33;0.77;;;22.00;49.90;;;;;;5112437;28;20112;-38
2021/05/23 03:28:06;;;;;;;0.93;0.68;;;21.90;49.80;;;;;;5094829;28;20040;-38
2021/05/23 03:30:38;;;;;;;1.20;0.70;;;21.90;49.80;;;;;;5115096;28;20512;-38
2021/05/23 03:33:06;;;;;;;2.28;0.88;;;21.90;49.80;;;;;;5114796;28;20040;-38
2021/05/23 03:35:34;;;;;;;1.25;0.80;;;21.90;49.80;;;;;;5128709;28;20051;-39
2021/05/23 03:38:03;;;;;;;0.88;0.68;;;21.90;49.80;;;;;;5116422;28;20448;-39
2021/05/23 03:40:31;;;;;;;1.13;0.60;;;21.90;49.90;;;;;;5125933;28;20047;-39
2021/05/23 03:42:58;;;;;;;1.10;0.60;;;22.00;49.90;;;;;;5116492;28;20067;-40
2021/05/23 03:45:26;;;;;;;2.55;1.10;;;21.90;49.90;;;;;;5113402;28;20047;-38
2021/05/23 03:47:53;;;;;;;0.70;0.65;;;21.90;49.90;;;;;;5112382;28;20134;-39
2021/05/23 03:50:23;;;;;;;1.67;0.60;;;21.90;49.90;;;;;;5123338;28;20043;-39
2021/05/23 03:52:54;;;;;;;1.90;0.60;;;21.90;49.90;;;;;;5129065;28;20047;-40
2021/05/23 03:55:22;;;;;;;1.67;0.70;;;21.90;49.90;;;;;;5120217;28;20051;-38
2021/05/23 03:57:50;;;;;;;2.17;0.80;;;21.90;49.90;;;;;;5124468;27;20047;-39
2021/05/23 04:00:18;;;;;;;2.35;0.70;;;21.90;49.90;;;;;;5132813;27;20047;-38
2021/05/23 04:02:52;;;;;;;1.73;0.70;;;21.90;50.00;;;;;;5129051;27;20166;-39
2021/05/23 04:05:21;;;;;;;0.50;0.43;;;21.90;50.00;;;;;;5127728;27;20047;-38
2021/05/23 04:07:50;;;;;;;1.25;0.73;;;22.00;50.10;;;;;;5120815;27;20452;-38
2021/05/23 04:10:21;;;;;;;0.90;0.70;;;21.90;50.00;;;;;;5127617;27;20085;-38
2021/05/23 04:12:50;;;;;;;1.30;0.73;;;21.90;50.00;;;;;;5117088;27;20457;-38
2021/05/23 04:15:18;;;;;;;1.25;0.50;;;21.90;50.10;;;;;;5115912;28;20044;-40
2021/05/23 04:17:46;;;;;;;0.80;0.63;;;21.90;50.10;;;;;;5117052;27;20051;-38
2021/05/23 04:20:17;;;;;;;1.92;0.85;;;21.90;50.10;;;;;;5118188;27;20452;-38
2021/05/23 04:22:45;;;;;;;1.42;0.65;;;21.90;50.10;;;;;;5117229;27;20400;-38
2021/05/23 04:25:13;;;;;;;2.63;0.73;;;21.90;50.10;;;;;;5116758;27;20088;-38
2021/05/23 04:27:42;;;;;;;1.80;0.60;;;21.90;50.10;;;;;;5117032;27;20371;-38
2021/05/23 04:30:11;;;;;;;1.35;0.60;;;21.90;50.10;;;;;;5116640;27;20063;-38
2021/05/23 04:32:39;;;;;;;1.38;0.70;;;21.90;50.10;;;;;;5117079;27;20120;-38
2021/05/23 04:35:07;;;;;;;0.65;0.57;;;21.90;50.10;;;;;;5133626;27;20043;-39
2021/05/23 04:37:35;;;;;;;0.70;0.52;;;21.90;50.10;;;;;;5115902;27;20069;-40
2021/05/23 04:40:04;;;;;;;2.10;0.98;;;21.90;50.10;;;;;;5133557;27;20055;-38
2021/05/23 04:42:31;;;;;;;1.92;0.70;;;21.90;50.10;;;;;;5131129;27;20059;-38
2021/05/23 04:45:19;;;;;;;2.85;0.75;;;21.90;50.10;;;;;;5134049;27;20071;-38
2021/05/23 04:47:47;;;;;;;0.82;0.50;;;21.90;50.10;;;;;;5133105;27;20039;-38
2021/05/23 04:50:14;;;;;;;1.77;0.80;;;21.90;50.10;;;;;;5116420;27;20051;-38
2021/05/23 04:52:42;;;;;;;0.90;0.65;;;21.90;50.10;;;;;;5098236;28;20210;-38
2021/05/23 04:55:10;;;;;;;0.77;0.50;;;21.90;50.20;;;;;;5130207;27;20051;-38
2021/05/23 04:57:37;;;;;;;0.52;0.50;;;21.90;50.20;;;;;;5117330;27;20052;-38
2021/05/23 05:00:07;;;;;;;1.75;0.70;;;21.90;50.20;;;;;;5116358;27;20388;-38
2021/05/23 05:02:34;;;;;;;0.98;0.70;;;21.90;50.20;;;;;;5129128;27;20043;-38
2021/05/23 05:05:03;;;;;;;1.58;0.73;;;21.90;50.20;;;;;;5131308;27;20464;-39
2021/05/23 05:07:32;;;;;;;0.98;0.75;;;21.90;50.20;;;;;;5128486;27;20047;-38
2021/05/23 05:10:00;;;;;;;2.30;0.40;;;21.90;50.20;;;;;;5122437;27;20437;-39
2021/05/23 05:12:27;;;;;;;0.88;0.70;;;21.90;50.30;;;;;;5116960;27;20063;-39
2021/05/23 05:14:54;;;;;;;0.73;0.57;;;21.90;50.30;;;;;;5116183;27;20043;-39
2021/05/23 05:17:21;;;;;;;0.80;0.60;;;21.90;50.30;;;;;;5116773;27;20495;-39
2021/05/23 05:19:48;;;;;;;0.60;0.50;;;21.90;50.30;;;;;;5115841;27;20055;-38
2021/05/23 05:22:16;;;;;;;0.57;0.50;;;21.90;50.30;;;;;;5132588;27;20039;-38
2021/05/23 05:24:44;;;;;;;2.28;0.68;;;21.90;50.30;;;;;;5119249;27;20050;-38
2021/05/23 05:27:11;;;;;;;0.73;0.57;;;21.90;50.40;;;;;;5128543;27;20036;-38
2021/05/23 05:29:38;;;;;;;1.42;0.77;;;21.90;51.00;;;;;;5115644;27;20076;-39
2021/05/23 05:32:06;;;;;;;0.90;0.57;;;21.90;50.40;;;;;;5117746;27;20040;-38
2021/05/23 05:34:33;;;;;;;0.40;0.40;;;21.90;50.40;;;;;;5130985;27;20040;-39
2021/05/23 05:37:02;;;;;;;1.45;0.70;;;21.90;50.50;;;;;;5115928;27;20047;-38
2021/05/23 05:39:29;;;;;;;2.47;0.60;;;21.90;50.50;;;;;;5132736;27;20039;-39
2021/05/23 05:41:58;;;;;;;1.38;0.70;;;21.90;50.50;;;;;;5133647;27;20158;-38
2021/05/23 05:44:25;;;;;;;0.98;0.50;;;22.00;50.60;;;;;;5132554;27;20051;-39
2021/05/23 05:46:53;;;;;;;1.50;0.57;;;21.90;50.50;;;;;;5114188;28;20048;-38
2021/05/23 05:49:20;;;;;;;1.10;0.60;;;21.90;50.50;;;;;;5131829;27;20047;-39
2021/05/23 05:51:47;;;;;;;0.70;0.40;;;21.90;50.60;;;;;;5131166;27;20043;-38
2021/05/23 05:54:14;;;;;;;1.15;0.63;;;21.90;50.60;;;;;;5131970;27;20046;-39
2021/05/23 05:56:42;;;;;;;1.75;0.70;;;21.90;50.60;;;;;;5131733;27;20115;-38
2021/05/23 05:59:09;;;;;;;0.88;0.60;;;21.90;50.60;;;;;;5130223;27;20058;-38
2021/05/23 06:01:36;;;;;;;0.88;0.50;;;21.90;50.60;;;;;;5131637;27;20047;-39
2021/05/23 06:04:03;;;;;;;0.73;0.52;;;21.90;50.60;;;;;;5118849;27;20064;-39
2021/05/23 06:06:30;;;;;;;0.95;0.50;;;21.90;50.70;;;;;;5094883;28;20445;-38
2021/05/23 06:08:58;;;;;;;1.92;0.93;;;21.90;50.70;;;;;;5116248;27;20047;-37
2021/05/23 06:11:33;;;;;;;0.70;0.50;;;21.90;50.70;;;;;;5115088;27;20043;-38
2021/05/23 06:14:02;;;;;;;1.08;0.70;;;21.90;51.30;;;;;;5124333;27;20043;-38
2021/05/23 06:16:30;;;;;;;0.88;0.60;;;21.90;50.70;;;;;;5121352;27;20453;-38
2021/05/23 06:18:57;;;;;;;1.13;0.70;;;21.90;50.80;;;;;;5122112;27;20100;-38
2021/05/23 06:21:24;;;;;;;1.50;0.65;;;21.90;50.70;;;;;;5129959;27;20099;-38
2021/05/23 06:23:51;;;;;;;2.60;0.80;;;21.90;50.80;;;;;;5125213;27;20048;-38
2021/05/23 06:26:18;;;;;;;1.08;0.50;;;21.90;50.80;;;;;;5115802;27;20036;-38
2021/05/23 06:28:45;;;;;;;1.20;0.75;;;21.90;50.80;;;;;;5118140;27;20612;-38
2021/05/23 06:31:13;;;;;;;1.45;0.80;;;21.90;50.80;;;;;;5129858;27;20051;-38
2021/05/23 06:33:40;;;;;;;1.50;0.77;;;21.90;50.80;;;;;;5111653;27;20171;-38
2021/05/23 06:36:07;;;;;;;1.15;0.70;;;21.90;50.90;;;;;;5129634;27;20050;-38
2021/05/23 06:38:34;;;;;;;1.35;0.88;;;21.90;50.90;;;;;;5129717;27;20051;-38
2021/05/23 06:41:02;;;;;;;2.97;0.80;;;21.90;50.90;;;;;;5114264;28;20051;-38
2021/05/23 06:43:29;;;;;;;2.10;0.70;;;21.90;50.90;;;;;;5130872;27;20069;-38
2021/05/23 06:45:56;;;;;;;1.15;0.65;;;22.00;51.00;;;;;;5132222;27;20403;-39
2021/05/23 06:48:24;;;;;;;1.23;0.40;;;21.90;50.90;;;;;;5113419;27;20394;-38
2021/05/23 06:50:51;;;;;;;0.80;0.60;;;21.90;51.00;;;;;;5129975;27;20099;-38
2021/05/23 06:53:18;;;;;;;1.73;0.80;;;21.90;50.90;;;;;;5129847;27;20094;-38
2021/05/23 06:55:46;;;;;;;1.40;0.82;;;21.90;51.00;;;;;;5131114;27;20051;-38
2021/05/23 06:58:13;;;;;;;1.02;0.70;;;21.90;51.00;;;;;;5130644;27;20104;-39
2021/05/23 07:00:40;;;;;;;1.20;0.70;;;21.90;51.00;;;;;;5131068;27;20115;-38
2021/05/23 07:03:08;;;;;;;0.82;0.60;;;21.90;51.00;;;;;;5130953;27;20043;-39
2021/05/23 07:05:37;;;;;;;0.80;0.57;;;21.90;51.00;;;;;;5118624;27;20047;-39
2021/05/23 07:08:07;;;;;;;1.58;0.65;;;21.90;51.00;;;;;;5114390;28;20056;-39
2021/05/23 07:10:34;;;;;;;1.85;0.70;;;21.90;51.00;;;;;;5112667;28;20101;-39
2021/05/23 07:13:01;;;;;;;1.00;0.50;;;21.90;51.00;;;;;;5113851;28;20100;-38
2021/05/23 07:15:29;;;;;;;1.40;0.82;;;21.90;51.10;;;;;;5120894;28;20046;-39
2021/05/23 07:17:58;;;;;;;1.40;0.50;;;21.90;51.10;;;;;;5123465;28;20044;-38
2021/05/23 07:20:26;;;;;;;1.13;0.73;;;21.90;51.00;;;;;;5114084;28;20040;-39
2021/05/23 07:22:54;;;;;;;0.82;0.65;;;21.90;51.00;;;;;;5119626;28;20043;-38
2021/05/23 07:25:22;;;;;;;1.45;0.80;;;21.90;51.70;;;;;;5129140;28;20055;-38
2021/05/23 07:27:52;;;;;;;1.00;0.68;;;21.90;51.10;;;;;;5131182;28;20122;-38
2021/05/23 07:30:19;;;;;;;1.90;0.80;;;22.00;51.10;;;;;;5132502;27;20047;-38
2021/05/23 07:32:47;;;;;;;0.80;0.63;;;21.90;51.10;;;;;;5134688;27;20044;-38
2021/05/23 07:35:14;;;;;;;0.98;0.50;;;21.90;51.10;;;;;;5134830;27;20078;-38
2021/05/23 07:37:41;;;;;;;1.60;0.70;;;21.90;51.10;;;;;;5133510;27;20081;-39
2021/05/23 07:40:10;;;;;;;1.30;0.70;;;21.90;51.10;;;;;;5116886;27;20066;-39
2021/05/23 07:42:37;;;;;;;2.67;0.70;;;21.90;51.10;;;;;;5098924;28;20120;-39
2021/05/23 07:45:06;;;;;;;0.90;0.55;;;21.90;51.10;;;;;;5134416;27;20510;-39
2021/05/23 07:47:33;;;;;;;1.15;0.60;;;21.90;51.10;;;;;;5134315;27;20059;-38
2021/05/23 07:50:01;;;;;;;2.85;0.60;;;21.90;51.10;;;;;;5116455;28;20453;-38
2021/05/23 07:52:28;;;;;;;1.70;0.73;;;21.90;51.10;;;;;;5133490;27;20524;-39
2021/05/23 07:54:55;;;;;;;1.50;0.73;;;21.90;51.10;;;;;;5119061;27;20043;-38
2021/05/23 07:57:23;;;;;;;1.13;0.68;;;21.90;51.30;;;;;;5117571;27;20047;-38
2021/05/23 07:59:50;;;;;;;1.58;0.60;;;21.90;51.10;;;;;;5117199;27;20047;-39
2021/05/23 08:02:17;;;;;;;0.93;0.77;;;22.00;51.20;;;;;;5115744;28;20051;-38
2021/05/23 08:04:44;;;;;;;1.10;0.70;;;21.90;51.20;;;;;;5118621;27;20423;-38
2021/05/23 08:07:11;;;;;;;1.55;0.82;;;21.90;51.10;;;;;;5115208;28;20457;-39
2021/05/23 08:09:39;;;;;;;1.20;0.70;;;21.90;51.10;;;;;;5117039;27;20040;-39
2021/05/23 08:12:06;;;;;;;0.95;0.70;;;21.90;51.20;;;;;;5125613;27;20049;-39
2021/05/23 08:14:33;;;;;;;1.25;0.55;;;21.90;51.20;;;;;;5123660;27;20094;-38
2021/05/23 08:17:00;;;;;;;0.77;0.60;;;21.90;51.20;;;;;;5124591;27;20055;-38
2021/05/23 08:19:27;;;;;;;1.40;0.60;;;22.00;51.40;;;;;;5127335;27;20039;-38
2021/05/23 08:21:55;;;;;;;1.10;0.50;;;21.90;51.20;;;;;;5115524;28;20137;-39
2021/05/23 08:24:22;;;;;;;1.23;0.80;;;21.90;51.20;;;;;;5121602;27;20039;-38
2021/05/23 08:26:49;;;;;;;1.05;0.60;;;21.90;51.20;;;;;;5130021;27;20100;-38
2021/05/23 08:29:17;;;;;;;1.00;0.70;;;21.90;51.20;;;;;;5118413;27;20054;-38
2021/05/23 08:31:44;;;;;;;1.10;0.85;;;22.00;51.30;;;;;;5133477;27;20036;-38
2021/05/23 08:34:11;;;;;;;0.82;0.50;;;21.90;51.20;;;;;;5114397;27;20097;-38
2021/05/23 08:36:38;;;;;;;1.05;0.77;;;21.90;51.20;;;;;;5116422;27;20047;-40
2021/05/23 08:39:05;;;;;;;1.90;0.88;;;21.90;51.20;;;;;;5097822;28;20469;-38
2021/05/23 08:41:32;;;;;;;1.40;0.70;;;21.90;51.20;;;;;;5133917;27;20073;-38
2021/05/23 08:44:00;;;;;;;2.08;0.70;;;22.00;51.30;;;;;;5115301;28;20112;-38
2021/05/23 08:46:32;;;;;;;0.82;0.60;;;21.90;51.20;;;;;;5115091;28;20092;-38
2021/05/23 08:49:00;;;;;;;1.15;0.70;;;21.90;51.10;;;;;;5132552;27;20043;-39
2021/05/23 08:51:28;;;;;;;0.80;0.55;;;21.90;51.20;;;;;;5114227;28;20070;-38
2021/05/23 08:53:55;;;;;;;1.85;0.60;;;22.00;51.20;;;;;;5131212;27;20414;-38
2021/05/23 08:56:23;;;;;;;1.00;0.80;;;21.90;51.10;;;;;;5133138;27;20506;-38
2021/05/23 08:58:50;;;;;;;1.48;0.90;;;22.00;51.20;;;;;;5132878;27;20517;-38
2021/05/23 09:01:26;;;;;;;1.73;0.90;;;21.90;51.10;;;;;;5119349;27;20472;-39
2021/05/23 09:04:01;;;;;;;1.60;0.60;;;22.00;51.20;;;;;;5129647;27;20062;-38
2021/05/23 09:06:36;;;;;;;1.27;0.77;;;21.90;51.10;;;;;;5122119;27;20040;-38
2021/05/23 09:09:06;;;;;;;2.08;0.50;;;21.90;51.10;;;;;;5115947;27;20081;-39
2021/05/23 09:11:39;;;;;;;1.13;0.73;;;21.90;51.70;;;;;;5128493;27;20111;-39
2021/05/23 09:14:06;;;;;;;1.13;0.70;;;21.90;51.10;;;;;;5132803;27;20043;-39
2021/05/23 09:16:41;;;;;;;1.88;0.80;;;21.90;51.10;;;;;;5121575;27;20456;-39
2021/05/23 09:19:08;;;;;;;1.85;0.80;;;21.90;51.10;;;;;;5131677;27;20048;-38
2021/05/23 09:21:38;;;;;;;3.90;0.88;;;21.90;51.00;;;;;;5116891;27;20066;-38
2021/05/23 09:24:09;;;;;;;0.93;0.50;;;21.90;51.00;;;;;;5115983;27;20141;-39
2021/05/23 09:26:50;;;;;;;1.73;0.70;;;21.90;51.00;;;;;;5124775;27;20047;-40
2021/05/23 09:29:21;;;;;;;1.25;0.70;;;21.90;51.00;;;;;;5121143;27;20048;-38
2021/05/23 09:31:58;;;;;;;1.88;0.80;;;21.90;51.10;;;;;;5124941;27;20047;-40
2021/05/23 09:34:27;;;;;;;0.88;0.60;;;21.90;51.00;;;;;;5121405;27;20035;-39
2021/05/23 09:36:55;;;;;;;1.20;0.70;;;21.90;51.00;;;;;;5116806;27;20051;-39
2021/05/23 09:39:37;;;;;;;1.90;0.65;;;21.90;51.00;;;;;;5115730;27;20048;-38
2021/05/23 09:42:06;;;;;;;0.80;0.50;;;21.90;51.00;;;;;;5126403;27;20100;-39
2021/05/23 09:44:34;;;;;;;0.70;0.50;;;21.90;51.00;;;;;;5130733;27;20059;-39
2021/05/23 09:47:07;;;;;;;1.23;0.73;;;21.90;51.00;;;;;;5130709;27;20057;-39
2021/05/23 09:49:45;;;;;;;1.88;0.80;;;21.90;51.00;;;;;;5132332;27;20126;-39
2021/05/23 09:52:15;;;;;;;1.38;0.77;;;21.90;50.90;;;;;;5132069;27;20054;-38
2021/05/23 09:55:00;;;;;;;0.88;0.60;;;21.90;50.90;;;;;;5122204;27;20051;-38
2021/05/23 09:57:29;;;;;;;1.13;0.90;;;21.90;50.90;;;;;;5115043;27;20047;-38
2021/05/23 10:00:11;;;;;;;0.80;0.50;;;21.90;50.90;;;;;;5114824;27;20552;-38
2021/05/23 10:02:51;;;;;;;1.88;0.68;;;21.90;50.90;;;;;;5126380;27;20054;-38
2021/05/23 10:05:20;;;;;;;1.70;0.68;;;22.00;51.00;;;;;;5119796;27;20473;-38
2021/05/23 10:07:47;;;;;;;1.15;0.70;;;21.90;50.90;;;;;;5104603;27;20043;-39
2021/05/23 10:10:15;;;;;;;1.50;0.70;;;21.90;50.90;;;;;;5123520;27;20050;-39
2021/05/23 10:12:43;;;;;;;1.30;0.60;;;21.90;50.90;;;;;;5120947;27;20039;-39
2021/05/23 10:15:19;;;;;;;3.50;0.88;;;21.90;50.90;;;;;;5161024;27;20297;-38
2021/05/23 10:17:56;;;;;;;1.30;0.68;;;21.90;50.90;;;;;;5150868;27;20043;-39
2021/05/23 10:20:27;;;;;;;0.90;0.52;;;21.90;50.90;;;;;;5150885;27;20057;-38
2021/05/23 10:22:57;;;;;;;1.08;0.68;;;22.00;50.90;;;;;;5151232;27;20129;-38
2021/05/23 10:25:26;;;;;;;1.02;0.70;;;21.90;50.80;;;;;;5150786;27;20046;-38
2021/05/23 10:27:56;;;;;;;1.25;0.70;;;21.90;50.80;;;;;;5131120;27;20043;-38
2021/05/23 10:30:23;;;;;;;2.38;1.02;;;22.00;50.90;;;;;;5149296;27;20055;-38
2021/05/23 10:32:50;;;;;;;0.80;0.70;;;21.90;50.80;;;;;;5132456;27;20054;-38
2021/05/23 10:35:23;;;;;;;1.48;0.60;;;22.00;50.90;;;;;;5150781;27;20047;-38
2021/05/23 10:37:52;;;;;;;1.10;0.68;;;21.90;50.80;;;;;;5150923;27;20043;-38
2021/05/23 10:40:31;;;;;;;0.85;0.70;;;21.90;50.80;;;;;;5150879;27;20092;-38
2021/05/23 10:43:00;;;;;;;1.48;0.50;;;22.00;50.90;;;;;;5150629;27;20035;-38
2021/05/23 10:45:33;;;;;;;1.83;0.55;;;21.90;50.70;;;;;;5150482;27;20039;-38
2021/05/23 10:48:13;;;;;;;0.83;0.57;;;21.90;50.80;;;;;;5149098;27;20091;-38
2021/05/23 10:50:41;;;;;;;1.17;0.45;;;22.00;50.90;;;;;;5150686;27;20073;-38
2021/05/23 10:53:08;;;;;;;2.13;0.70;;;21.90;50.70;;;;;;5131567;27;20042;-38
2021/05/23 10:55:51;;;;;;;1.00;0.52;;;22.00;50.80;;;;;;5148828;27;20043;-38
2021/05/23 10:58:26;;;;;;;1.00;0.60;;;21.90;50.70;;;;;;5150271;27;20039;-37
2021/05/23 11:00:57;;;;;;;0.75;0.50;;;22.00;50.80;;;;;;5150116;27;20034;-38
2021/05/23 11:03:26;;;;;;;0.80;0.60;;;22.00;50.80;;;;;;5149043;27;20410;-37
2021/05/23 11:06:05;;;;;;;1.95;0.70;;;22.00;50.70;;;;;;5147592;27;20059;-37
2021/05/23 11:08:35;;;;;;;0.90;0.60;;;22.00;50.70;;;;;;5148566;27;20047;-37
2021/05/23 11:11:03;;;;;;;1.17;0.57;;;22.00;50.70;;;;;;5148575;27;20091;-37
2021/05/23 11:13:37;;;;;;;2.20;0.77;;;22.00;50.70;;;;;;5149519;27;20047;-37
2021/05/23 11:16:16;;;;;;;0.60;0.50;;;22.00;50.70;;;;;;5150002;27;20054;-37
2021/05/23 11:18:45;;;;;;;0.90;0.68;;;22.00;50.70;;;;;;5148191;27;20383;-37
2021/05/23 11:21:14;;;;;;;0.90;0.52;;;22.00;50.70;;;;;;5149648;27;20043;-38
2021/05/23 11:23:48;;;;;;;0.57;0.50;;;22.00;50.60;;;;;;5150034;27;20042;-38
2021/05/23 11:26:17;;;;;;;1.13;0.65;;;22.00;50.60;;;;;;5137073;27;20051;-37
2021/05/23 11:28:49;;;;;;;0.93;0.50;;;22.00;50.60;;;;;;5134246;27;20491;-38
2021/05/23 11:31:21;;;;;;;0.98;0.50;;;22.00;50.60;;;;;;5134664;27;20047;-38
2021/05/23 11:33:49;;;;;;;1.33;0.55;;;22.00;50.60;;;;;;5134303;27;20059;-37
2021/05/23 11:36:21;;;;;;;1.48;0.63;;;22.00;50.60;;;;;;5134332;27;20042;-37
2021/05/23 11:38:49;;;;;;;0.82;0.57;;;22.00;50.60;;;;;;5118518;27;20054;-37
2021/05/23 11:41:33;;;;;;;1.10;0.52;;;22.00;50.60;;;;;;5135948;27;20051;-38
2021/05/23 11:44:02;;;;;;;1.00;0.57;;;22.00;50.50;;;;;;5118698;27;20527;-37
2021/05/23 11:46:29;;;;;;;1.77;0.80;;;22.00;50.50;;;;;;5115525;28;20507;-37
2021/05/23 11:48:57;;;;;;;1.33;0.60;;;22.00;50.50;;;;;;5133829;27;20491;-38
2021/05/23 11:51:30;;;;;;;2.38;0.70;;;22.00;50.50;;;;;;5134577;27;20452;-37
2021/05/23 11:54:00;;;;;;;1.10;0.63;;;22.00;50.50;;;;;;5134585;27;20088;-37
2021/05/23 11:56:33;;;;;;;0.90;0.70;;;22.00;50.50;;;;;;5116795;27;20391;-37
2021/05/23 11:59:05;;;;;;;2.00;0.73;;;22.00;50.50;;;;;;5134312;27;20059;-37
2021/05/23 12:01:35;;;;;;;0.82;0.52;;;22.00;50.50;;;;;;5135094;27;20047;-37
2021/05/23 12:04:05;;;;;;;0.73;0.45;;;22.00;50.50;;;;;;5134982;27;20055;-38
2021/05/23 12:06:39;;;;;;;1.08;0.70;;;22.00;50.50;;;;;;5125384;27;20560;-38
2021/05/23 12:09:12;;;;;;;2.50;0.50;;;22.00;50.50;;;;;;5134405;27;20055;-38
2021/05/23 12:11:51;;;;;;;0.47;0.32;;;22.00;50.50;;;;;;5133102;27;20050;-38
2021/05/23 12:14:28;;;;;;;1.40;0.60;;;22.00;50.40;;;;;;5134562;27;20463;-37
2021/05/23 12:17:03;;;;;;;0.50;0.40;;;22.00;50.40;;;;;;5134809;27;20072;-37
2021/05/23 12:19:48;;;;;;;0.90;0.60;;;22.00;50.30;;;;;;5134036;27;20039;-37
2021/05/23 12:22:26;;;;;;;1.08;0.50;;;22.00;50.30;;;;;;5132781;27;20097;-38
2021/05/23 12:25:03;;;;;;;0.47;0.40;;;22.00;50.30;;;;;;5133475;27;20043;-38
2021/05/23 12:27:48;;;;;;;2.17;0.50;;;22.00;50.30;;;;;;5117002;27;20052;-38
2021/05/23 12:30:23;;;;;;;1.77;0.50;;;22.00;50.30;;;;;;5118115;27;20043;-38
2021/05/23 12:32:57;;;;;;;0.60;0.47;;;22.00;50.30;;;;;;5134933;27;20468;-37
2021/05/23 12:35:24;;;;;;;;;;;22.00;50.30;;;;;;5135132;27;20511;-37
2021/05/23 12:37:52;;;;;;;1.80;0.50;;;22.00;50.20;;;;;;5133765;27;19919;-37
2021/05/23 12:40:55;;;;;;;1.08;0.60;;;22.00;50.20;;;;;;5116840;27;20047;-37
2021/05/23 12:43:28;;;;;;;1.25;0.50;;;22.00;50.30;;;;;;5115053;27;20047;-37
2021/05/23 12:46:05;;;;;;;0.50;0.40;;;22.00;50.20;;;;;;5134254;27;20039;-37
2021/05/23 12:48:34;;;;;;;0.93;0.47;;;22.00;50.20;;;;;;5134285;27;20111;-37
2021/05/23 12:51:16;;;;;;;3.25;0.63;;;22.00;50.20;;;;;;5133179;27;20410;-38
2021/05/23 12:53:48;;;;;;;0.93;0.50;;;22.00;50.20;;;;;;5131594;27;20706;-37
2021/05/23 12:56:20;;;;;;;2.42;0.65;;;22.00;50.10;;;;;;5134066;27;20039;-38
2021/05/23 12:58:54;;;;;;;0.65;0.38;;;22.00;50.10;;;;;;5132865;27;20055;-38
2021/05/23 13:01:26;;;;;;;0.65;0.47;;;22.00;50.10;;;;;;5134316;27;20043;-38